Terminal Aerodrome Forecast
Issued by NWS

Home | Current Version | Previous Version | Graphics & Text | Print | Product List | Glossary On
Versions: 1 2 3 4 5 6 7 8 9 10 11 12 13 14 15 16
883
FTUS43 KABR 262325
TAFPIR
TAF
KPIR 262325Z 2700/2724 32012KT P6SM FEW070
     FM270600 VRB05KT P6SM BKN200
     FM271700 08008KT P6SM VCSH BKN200=

USA.gov is the U.S. government's official web portal to all federal, state and local government web resources and services.